Time;durP1;ratioP1;P1;durP2;ratioP2;P2;SDS_P1;SDS_P2;PMS_P1;PMS_P2;Temp;Humidity;BMP_temperature;BMP_pressure;BME280_temperature;BME280_humidity;BME280_pressure;Samples;Min_cycle;Max_cycle;Signal;HPM_P1;HPM_P2
2022/07/13 00:02:15;;;;;;;2.15;1.20;;;;;;;15.61;44.73;94408.00;5126676;28;20031;-81
2022/07/13 00:04:41;;;;;;;2.80;0.93;;;;;;;15.54;44.73;94403.16;5126528;28;20091;-80
2022/07/13 00:07:06;;;;;;;2.05;1.00;;;;;;;15.48;44.76;94406.41;5126855;28;20036;-80
2022/07/13 00:09:32;;;;;;;6.47;1.02;;;;;;;15.46;44.86;94401.34;5126553;28;20028;-80
2022/07/13 00:11:57;;;;;;;2.88;0.82;;;;;;;15.45;45.07;94405.16;5126633;28;20317;-80
2022/07/13 00:14:22;;;;;;;3.70;0.73;;;;;;;15.43;45.59;94400.13;5126360;28;20030;-80
2022/07/13 00:16:48;;;;;;;1.30;0.70;;;;;;;15.45;47.27;94392.50;5126303;28;20043;-80
2022/07/13 00:19:13;;;;;;;2.00;0.80;;;;;;;15.47;47.19;94410.19;5125169;28;20040;-80
2022/07/13 00:21:39;;;;;;;5.22;0.98;;;;;;;15.46;46.93;94398.66;5126570;28;20243;-80
2022/07/13 00:24:04;;;;;;;2.65;1.10;;;;;;;15.49;47.00;94400.72;5126057;28;20037;-80
2022/07/13 00:26:30;;;;;;;2.42;0.70;;;;;;;15.50;46.30;94402.25;5126385;28;20031;-80
2022/07/13 00:28:55;;;;;;;7.05;1.30;;;;;;;15.49;46.66;94394.53;5126375;28;20022;-79
2022/07/13 00:31:20;;;;;;;2.83;0.73;;;;;;;15.51;46.17;94395.78;5126010;28;20270;-79
2022/07/13 00:33:46;;;;;;;2.47;0.90;;;;;;;15.55;45.70;94398.56;5125021;28;20309;-79
2022/07/13 00:36:11;;;;;;;2.85;1.42;;;;;;;15.56;46.23;94397.47;5126339;28;20042;-80
2022/07/13 00:38:37;;;;;;;1.55;0.82;;;;;;;15.55;45.00;94390.50;5125955;28;20022;-79
2022/07/13 00:41:05;;;;;;;0.80;0.52;;;;;;;15.56;44.80;94403.63;5125958;28;20090;-79
2022/07/13 00:43:31;;;;;;;7.35;0.80;;;;;;;15.57;45.33;94382.91;5126193;27;20015;-79
2022/07/13 00:45:57;;;;;;;2.47;0.80;;;;;;;15.57;45.63;94390.97;5125931;28;20214;-80
2022/07/13 00:48:22;;;;;;;4.80;0.93;;;;;;;15.56;47.07;94398.25;5125711;28;20092;-79
2022/07/13 00:50:50;;;;;;;1.50;0.90;;;;;;;15.52;48.00;94394.66;5125673;28;20019;-80
2022/07/13 00:53:15;;;;;;;5.55;1.02;;;;;;;15.49;46.95;94395.34;5125804;28;20217;-80
2022/07/13 00:55:42;;;;;;;4.75;1.00;;;;;;;15.47;47.17;94400.25;5125789;28;20057;-80
2022/07/13 00:58:10;;;;;;;3.10;1.13;;;;;;;15.45;48.23;94392.50;5125464;28;20072;-80
2022/07/13 01:00:38;;;;;;;3.60;0.70;;;;;;;15.40;47.10;94395.41;5125650;28;20015;-80
2022/07/13 01:03:04;;;;;;;2.65;0.80;;;;;;;15.39;48.10;94399.22;5125424;28;20103;-80
2022/07/13 01:05:30;;;;;;;2.67;0.73;;;;;;;15.36;48.56;94399.06;5125388;28;20212;-80
2022/07/13 01:07:56;;;;;;;2.90;1.00;;;;;;;15.31;48.82;94401.97;5125369;28;20030;-80
2022/07/13 01:10:21;;;;;;;2.45;0.98;;;;;;;15.26;50.01;94397.56;5125454;28;20053;-80
2022/07/13 01:12:47;;;;;;;7.35;0.90;;;;;;;15.20;51.27;94394.31;5125392;28;20156;-81
2022/07/13 01:15:12;;;;;;;1.83;1.00;;;;;;;15.13;51.55;94387.91;5125237;28;20099;-81
2022/07/13 01:17:38;;;;;;;1.63;0.90;;;;;;;15.04;51.39;94388.75;5125083;28;20313;-81
2022/07/13 01:20:05;;;;;;;2.17;0.90;;;;;;;14.96;50.93;94402.22;5125210;28;20098;-81
2022/07/13 01:22:45;;;;;;;2.33;1.08;;;;;;;14.68;52.00;94412.69;5124878;28;20356;-81
2022/07/13 01:25:12;;;;;;;4.90;1.27;;;;;;;14.69;51.94;94414.25;5124092;28;20028;-80
2022/07/13 01:27:39;;;;;;;6.72;1.27;;;;;;;14.60;53.16;94403.59;5125139;28;20024;-79
2022/07/13 01:30:06;;;;;;;2.88;1.27;;;;;;;14.54;52.29;94407.53;5124880;28;20140;-79
2022/07/13 01:32:49;;;;;;;3.88;1.08;;;;;;;14.51;53.32;94403.63;5124758;28;20026;-79
2022/07/13 01:35:15;;;;;;;1.92;0.98;;;;;;;14.47;54.05;94394.66;5124699;28;20084;-79
2022/07/13 01:37:42;;;;;;;4.15;1.42;;;;;;;14.43;54.62;94391.81;5124956;28;20031;-79
2022/07/13 01:40:09;;;;;;;6.20;1.30;;;;;;;14.38;54.80;94383.16;5124866;28;20019;-79
2022/07/13 01:42:46;;;;;;;3.08;1.55;;;;;;;14.33;54.54;94380.66;5124615;28;20043;-81
2022/07/13 01:45:13;;;;;;;3.03;1.25;;;;;;;14.28;55.00;94378.94;5124840;28;20079;-81
2022/07/13 01:47:40;;;;;;;3.72;1.60;;;;;;;14.27;55.33;94388.13;5124722;28;20098;-81
2022/07/13 01:50:07;;;;;;;3.15;1.40;;;;;;;14.23;55.68;94384.50;5124591;28;20028;-81
2022/07/13 01:52:33;;;;;;;9.02;1.25;;;;;;;14.23;56.33;94379.94;5124540;28;20106;-81
2022/07/13 01:54:59;;;;;;;2.30;1.02;;;;;;;14.19;56.84;94378.22;5124555;28;20216;-81
2022/07/13 01:57:24;;;;;;;4.90;1.50;;;;;;;14.15;56.64;94379.97;5123172;28;20027;-81
2022/07/13 01:59:51;;;;;;;2.00;1.17;;;;;;;14.10;56.26;94386.28;5124320;28;20066;-80
2022/07/13 02:02:16;;;;;;;3.10;1.20;;;;;;;14.08;55.81;94383.13;5124313;28;20027;-79
2022/07/13 02:04:43;;;;;;;3.42;1.25;;;;;;;14.03;55.73;94389.47;5123249;28;20016;-79
2022/07/13 02:07:08;;;;;;;2.17;1.10;;;;;;;14.03;55.73;94394.06;5124298;28;20065;-80
2022/07/13 02:09:34;;;;;;;2.17;0.82;;;;;;;14.03;55.34;94400.19;5124180;28;20095;-80
2022/07/13 02:11:59;;;;;;;5.38;1.13;;;;;;;14.00;55.50;94402.72;5124317;28;20090;-80
2022/07/13 02:14:25;;;;;;;3.35;1.02;;;;;;;13.97;55.16;94398.78;5123468;28;20356;-79
2022/07/13 02:16:50;;;;;;;2.33;1.02;;;;;;;13.96;54.26;94391.06;5123974;28;20102;-79
2022/07/13 02:19:16;;;;;;;1.40;0.75;;;;;;;13.94;54.65;94390.59;5123959;28;20319;-79
2022/07/13 02:21:41;;;;;;;4.80;1.17;;;;;;;13.94;54.35;94396.78;5123001;28;20024;-79
2022/07/13 02:24:06;;;;;;;2.30;0.98;;;;;;;13.97;52.61;94392.66;5122666;28;20011;-79
2022/07/13 02:26:32;;;;;;;3.60;1.10;;;;;;;13.91;53.38;94388.59;5123863;28;20027;-79
2022/07/13 02:28:57;;;;;;;3.25;1.05;;;;;;;13.92;53.34;94395.50;5123938;28;20030;-79
2022/07/13 02:31:23;;;;;;;3.47;1.15;;;;;;;13.92;53.82;94403.53;5123874;28;20047;-79
2022/07/13 02:33:48;;;;;;;3.10;0.90;;;;;;;13.91;54.44;94394.72;5123958;28;20032;-79
2022/07/13 02:36:13;;;;;;;2.45;0.93;;;;;;;13.90;54.48;94393.16;5122831;28;20225;-79
2022/07/13 02:38:39;;;;;;;3.35;1.92;;;;;;;13.91;55.15;94393.94;5123865;27;20024;-79
2022/07/13 02:41:04;;;;;;;4.43;1.00;;;;;;;13.89;55.70;94398.84;5123587;28;20031;-79
2022/07/13 02:43:30;;;;;;;2.88;0.80;;;;;;;13.85;55.76;94388.75;5123579;28;20058;-79
2022/07/13 02:45:55;;;;;;;3.38;1.00;;;;;;;13.81;55.56;94393.16;5123511;28;20047;-79
2022/07/13 02:48:21;;;;;;;2.88;0.98;;;;;;;13.79;56.39;94394.59;5123834;28;20102;-79
2022/07/13 02:50:47;;;;;;;4.68;1.13;;;;;;;13.73;56.50;94390.53;5123432;28;20030;-79
2022/07/13 02:53:12;;;;;;;8.52;1.40;;;;;;;13.72;54.77;94388.94;5123778;28;20225;-79
2022/07/13 02:55:38;;;;;;;6.22;0.95;;;;;;;13.73;51.62;94393.19;5123766;28;20020;-79
2022/07/13 02:58:03;;;;;;;3.72;0.85;;;;;;;13.78;50.92;94383.09;5122155;28;20023;-79
2022/07/13 03:00:28;;;;;;;4.00;0.77;;;;;;;13.82;50.75;94394.75;5123396;28;20031;-80
2022/07/13 03:02:54;;;;;;;3.10;0.88;;;;;;;13.84;50.69;94386.41;5123493;28;20024;-80
2022/07/13 03:05:19;;;;;;;2.40;0.70;;;;;;;13.88;50.21;94386.53;5123226;28;20087;-80
2022/07/13 03:07:45;;;;;;;2.83;0.70;;;;;;;13.90;50.28;94389.69;5123465;28;20110;-80
2022/07/13 03:10:11;;;;;;;5.50;1.20;;;;;;;13.91;49.78;94385.91;5123452;28;20016;-80
2022/07/13 03:12:36;;;;;;;5.05;0.93;;;;;;;13.93;49.96;94383.69;5122226;28;20248;-81
2022/07/13 03:15:02;;;;;;;4.50;0.88;;;;;;;13.97;49.92;94380.03;5123335;28;20012;-80
2022/07/13 03:17:27;;;;;;;3.35;0.93;;;;;;;14.08;49.73;94380.47;5123172;28;20106;-78
2022/07/13 03:19:53;;;;;;;5.50;0.80;;;;;;;14.12;50.52;94378.69;5123343;28;20212;-79
2022/07/13 03:22:18;;;;;;;2.00;0.82;;;;;;;14.20;50.52;94371.75;5123262;28;20072;-79
2022/07/13 03:24:44;;;;;;;2.28;0.77;;;;;;;14.23;50.92;94379.94;5123223;28;20034;-79
2022/07/13 03:27:09;;;;;;;3.08;0.95;;;;;;;14.24;51.62;94388.75;5126404;28;20068;-78
2022/07/13 03:29:35;;;;;;;5.40;1.40;;;;;;;14.24;52.66;94394.88;5127359;28;20227;-78
2022/07/13 03:32:00;;;;;;;6.53;1.75;;;;;;;14.28;53.09;94384.31;5127227;28;20024;-79
2022/07/13 03:34:26;;;;;;;4.95;1.83;;;;;;;14.32;53.52;94377.19;5127120;28;20023;-79
2022/07/13 03:36:51;;;;;;;11.05;1.92;;;;;;;14.39;53.95;94382.03;5127115;28;20032;-78
2022/07/13 03:39:16;;;;;;;3.20;1.45;;;;;;;14.40;55.14;94378.25;5127199;28;20031;-78
2022/07/13 03:41:42;;;;;;;5.32;1.83;;;;;;;14.42;55.66;94379.50;5127229;28;20332;-78
2022/07/13 03:44:08;;;;;;;4.15;1.60;;;;;;;14.41;56.55;94385.19;5126769;28;20020;-79
2022/07/13 03:46:33;;;;;;;9.00;3.38;;;;;;;14.44;57.55;94387.22;5127006;28;20031;-79
2022/07/13 03:48:58;;;;;;;5.43;1.90;;;;;;;14.44;57.50;94389.91;5125813;28;20023;-79
2022/07/13 03:51:24;;;;;;;3.75;1.88;;;;;;;14.44;57.50;94387.22;5126811;28;20082;-80
2022/07/13 03:53:49;;;;;;;8.80;2.20;;;;;;;14.47;57.10;94381.22;5126781;28;20065;-80
2022/07/13 03:56:15;;;;;;;3.88;1.75;;;;;;;14.49;57.42;94392.44;5126973;28;20020;-80
2022/07/13 03:58:40;;;;;;;4.78;1.90;;;;;;;14.52;57.52;94391.75;5126737;28;20194;-80
2022/07/13 04:01:06;;;;;;;5.85;3.20;;;;;;;14.53;57.46;94401.41;5126676;28;20016;-80
2022/07/13 04:03:31;;;;;;;7.75;2.53;;;;;;;14.56;57.18;94392.72;5126690;28;20099;-80
2022/07/13 04:05:57;;;;;;;23.98;2.55;;;;;;;14.59;56.30;94400.13;5126496;28;20015;-80
2022/07/13 04:08:22;;;;;;;7.35;2.03;;;;;;;14.66;56.03;94393.47;5126531;28;20027;-80
2022/07/13 04:10:47;;;;;;;13.30;2.17;;;;;;;14.73;54.96;94397.19;5126438;28;20027;-81
2022/07/13 04:13:13;;;;;;;4.78;2.20;;;;;;;14.73;54.23;94389.13;5126702;28;20051;-81
2022/07/13 04:15:38;;;;;;;7.43;2.08;;;;;;;14.76;54.48;94393.84;5126268;28;20036;-81
2022/07/13 04:18:04;;;;;;;5.28;1.95;;;;;;;14.82;55.41;94394.47;5126270;28;20076;-80
2022/07/13 04:20:29;;;;;;;6.20;2.38;;;;;;;14.85;55.06;94407.22;5126373;28;20035;-81
2022/07/13 04:22:55;;;;;;;6.97;2.28;;;;;;;14.84;54.13;94409.13;5126252;28;20016;-81
2022/07/13 04:25:21;;;;;;;6.47;3.00;;;;;;;14.88;55.03;94411.13;5125004;28;20019;-80
2022/07/13 04:27:46;;;;;;;6.85;2.50;;;;;;;14.92;55.92;94412.06;5126268;27;20034;-81
2022/07/13 04:30:11;;;;;;;6.85;2.78;;;;;;;14.95;56.39;94412.19;5126099;28;20020;-81
2022/07/13 04:32:37;;;;;;;10.02;3.10;;;;;;;15.00;56.15;94414.69;5126305;28;20024;-80
2022/07/13 04:35:03;;;;;;;16.42;3.35;;;;;;;15.03;56.74;94413.25;5126014;28;20019;-80
2022/07/13 04:37:28;;;;;;;4.72;2.25;;;;;;;15.05;56.85;94406.44;5125561;28;20015;-81
2022/07/13 04:39:54;;;;;;;11.77;3.20;;;;;;;15.13;56.92;94423.59;5125805;28;20039;-80
2022/07/13 04:42:19;;;;;;;11.38;3.28;;;;;;;15.04;56.70;94420.16;5125805;28;20158;-80
2022/07/13 04:44:44;;;;;;;5.20;2.78;;;;;;;15.08;56.54;94412.25;5125852;28;20041;-81
2022/07/13 04:47:10;;;;;;;6.38;1.98;;;;;;;15.10;55.72;94407.34;5125870;28;20029;-81
2022/07/13 04:49:36;;;;;;;8.32;2.25;;;;;;;15.17;55.15;94410.31;5124715;28;20054;-81
2022/07/13 04:52:01;;;;;;;23.90;3.30;;;;;;;15.26;55.56;94413.69;5125716;28;20015;-81
2022/07/13 04:54:26;;;;;;;13.38;3.53;;;;;;;15.37;55.86;94417.56;5124334;28;20035;-81
2022/07/13 04:56:52;;;;;;;23.88;3.70;;;;;;;15.44;56.00;94406.28;5125699;28;20145;-80
2022/07/13 04:59:17;;;;;;;12.80;2.33;;;;;;;15.52;55.14;94402.72;5125585;28;20035;-81
2022/07/13 05:01:43;;;;;;;8.25;1.77;;;;;;;15.67;53.94;94405.91;5125365;28;20023;-81
2022/07/13 05:04:08;;;;;;;4.80;1.88;;;;;;;15.78;52.73;94405.19;5125427;27;20027;-80
2022/07/13 05:06:34;;;;;;;6.85;1.52;;;;;;;15.95;51.58;94406.13;5125501;28;20100;-82
2022/07/13 05:09:00;;;;;;;13.05;1.92;;;;;;;16.01;51.66;94407.47;5125470;28;20087;-79
2022/07/13 05:11:26;;;;;;;4.93;2.15;;;;;;;16.04;52.81;94417.56;5125034;28;20020;-81
2022/07/13 05:13:52;;;;;;;21.52;2.83;;;;;;;16.22;58.58;94405.50;5125673;28;20050;-80
2022/07/13 05:16:18;;;;;;;8.95;2.05;;;;;;;16.40;54.71;94407.94;5125310;28;20039;-82
2022/07/13 05:18:44;;;;;;;11.95;2.88;;;;;;;16.46;51.51;94403.91;5125636;28;20053;-84
2022/07/13 05:21:10;;;;;;;8.20;2.45;;;;;;;16.58;52.27;94401.22;5124941;28;20030;-83
2022/07/13 05:23:36;;;;;;;7.78;1.92;;;;;;;16.69;51.73;94416.91;5125301;28;20015;-83
2022/07/13 05:26:02;;;;;;;8.68;2.08;;;;;;;16.76;50.24;94417.91;5125139;28;20217;-83
2022/07/13 05:28:28;;;;;;;5.18;1.13;;;;;;;16.75;48.44;94413.66;5123674;28;20344;-85
2022/07/13 05:30:53;;;;;;;1.50;0.80;;;;;;;16.67;46.79;94414.56;5123892;28;20020;-84
2022/07/13 05:33:20;;;;;;;5.78;1.52;;;;;;;16.84;48.20;94422.41;5125257;28;20026;-81
2022/07/13 05:35:45;;;;;;;6.38;1.20;;;;;;;16.95;47.66;94416.56;5124948;28;20011;-81
2022/07/13 05:38:11;;;;;;;4.28;1.17;;;;;;;17.11;48.62;94416.66;5123537;28;20404;-82
2022/07/13 05:40:37;;;;;;;9.57;2.38;;;;;;;17.27;49.14;94414.81;5124805;28;20035;-82
2022/07/13 05:43:02;;;;;;;7.03;0.95;;;;;;;17.25;46.53;94419.75;5124742;28;20020;-80
2022/07/13 05:45:28;;;;;;;3.70;1.02;;;;;;;17.14;45.79;94418.69;5124489;28;20012;-80
2022/07/13 05:47:53;;;;;;;9.18;1.33;;;;;;;17.22;45.66;94425.84;5124482;28;20330;-81
2022/07/13 05:50:18;;;;;;;14.23;1.05;;;;;;;17.27;45.95;94425.59;5123228;28;20015;-80
2022/07/13 05:52:44;;;;;;;5.38;1.25;;;;;;;17.28;45.46;94423.66;5124782;28;20094;-81
2022/07/13 05:55:10;;;;;;;3.15;1.13;;;;;;;17.21;44.39;94426.94;5124369;28;20212;-79
2022/07/13 05:57:36;;;;;;;1.75;0.98;;;;;;;17.30;44.16;94422.22;5124675;28;20344;-80
2022/07/13 06:00:13;;;;;;;3.75;1.10;;;;;;;17.20;44.52;94420.00;5124487;28;20313;-79
2022/07/13 06:02:39;;;;;;;5.78;1.10;;;;;;;17.04;44.82;94423.41;5124369;28;20023;-80
2022/07/13 06:05:05;;;;;;;4.82;1.20;;;;;;;17.14;46.25;94424.06;5124152;28;20012;-78
2022/07/13 06:07:31;;;;;;;4.80;1.00;;;;;;;17.13;46.09;94422.47;5124428;28;20031;-77
2022/07/13 06:10:01;;;;;;;2.70;0.90;;;;;;;17.19;44.96;94421.91;5124339;28;20325;-78
2022/07/13 06:12:26;;;;;;;6.78;0.90;;;;;;;17.26;43.88;94426.72;5124123;28;20092;-78
2022/07/13 06:14:52;;;;;;;1.88;0.80;;;;;;;17.25;44.01;94419.75;5124416;28;20244;-77
2022/07/13 06:17:18;;;;;;;4.90;1.05;;;;;;;17.35;44.55;94419.28;5124202;28;20403;-76
2022/07/13 06:19:44;;;;;;;8.43;0.98;;;;;;;17.38;43.87;94418.59;5123823;28;20336;-77
2022/07/13 06:22:09;;;;;;;5.80;0.80;;;;;;;17.32;43.50;94408.38;5122731;28;20033;-77
2022/07/13 06:24:35;;;;;;;6.07;1.20;;;;;;;17.37;44.78;94410.84;5124046;28;20087;-77
2022/07/13 06:27:00;;;;;;;4.28;1.10;;;;;;;17.35;43.99;94419.28;5123897;28;20321;-77
2022/07/13 06:29:27;;;;;;;2.55;1.00;;;;;;;17.23;44.00;94411.22;5123841;28;20015;-77
2022/07/13 06:31:52;;;;;;;6.65;1.23;;;;;;;17.30;44.66;94422.22;5123693;28;20026;-76
2022/07/13 06:34:18;;;;;;;3.85;1.00;;;;;;;17.37;44.30;94417.03;5123948;28;20020;-76
2022/07/13 06:36:43;;;;;;;4.85;2.38;;;;;;;17.40;45.57;94404.78;5123798;28;20020;-77
2022/07/13 06:39:09;;;;;;;4.75;1.00;;;;;;;17.37;44.25;94410.84;5123523;28;20221;-77
2022/07/13 06:41:34;;;;;;;4.05;1.02;;;;;;;17.37;42.65;94422.41;5123687;28;20027;-76
2022/07/13 06:43:59;;;;;;;1.80;0.77;;;;;;;17.50;44.51;94403.50;5123829;27;20019;-78
2022/07/13 06:46:25;;;;;;;2.60;0.68;;;;;;;17.48;43.42;94408.44;5123592;28;20027;-77
2022/07/13 06:48:51;;;;;;;2.72;1.27;;;;;;;17.52;43.46;94406.63;5123773;28;20031;-78
2022/07/13 06:51:16;;;;;;;4.07;1.30;;;;;;;17.59;43.64;94396.06;5123655;28;20313;-78
2022/07/13 06:53:41;;;;;;;2.35;0.85;;;;;;;17.70;44.33;94407.91;5123609;28;20020;-77
2022/07/13 06:56:07;;;;;;;1.73;0.60;;;;;;;17.83;43.70;94404.06;5123691;28;20020;-77
2022/07/13 06:58:33;;;;;;;6.15;1.05;;;;;;;18.02;43.43;94406.06;5123621;28;20020;-77
2022/07/13 07:00:58;;;;;;;2.40;0.85;;;;;;;18.11;42.49;94400.50;5123236;28;20019;-78
2022/07/13 07:03:24;;;;;;;5.50;1.15;;;;;;;18.12;40.91;94396.69;5122327;28;20090;-78
2022/07/13 07:05:51;;;;;;;6.35;1.23;;;;;;;18.18;41.86;94406.09;5123533;28;20019;-77
2022/07/13 07:08:17;;;;;;;2.13;0.70;;;;;;;18.22;41.59;94396.16;5123449;28;20254;-77
2022/07/13 07:10:42;;;;;;;4.47;0.90;;;;;;;18.29;40.71;94411.75;5123369;28;20038;-79
2022/07/13 07:13:08;;;;;;;4.15;0.90;;;;;;;18.28;41.28;94401.28;5123306;28;20260;-79
2022/07/13 07:15:34;;;;;;;3.70;0.85;;;;;;;18.29;41.74;94400.16;5123119;28;20039;-79
2022/07/13 07:17:59;;;;;;;1.35;0.60;;;;;;;18.36;41.80;94408.44;5123435;28;20027;-80
2022/07/13 07:20:25;;;;;;;6.85;0.57;;;;;;;18.40;40.29;94403.94;5123282;28;20258;-80
2022/07/13 07:22:50;;;;;;;4.43;0.90;;;;;;;18.39;39.82;94410.44;5122248;28;20047;-79
2022/07/13 07:25:16;;;;;;;6.93;0.80;;;;;;;18.51;39.68;94413.03;5123559;28;20015;-80
2022/07/13 07:27:42;;;;;;;7.70;1.13;;;;;;;18.68;38.91;94416.50;5123218;28;20035;-79
2022/07/13 07:30:08;;;;;;;4.80;1.33;;;;;;;18.72;38.34;94422.78;5122943;28;20019;-80
2022/07/13 07:32:34;;;;;;;4.07;0.90;;;;;;;18.64;39.30;94416.41;5123295;28;20068;-79
2022/07/13 07:34:59;;;;;;;5.05;1.00;;;;;;;18.73;39.91;94416.25;5122009;28;20309;-79
2022/07/13 07:37:25;;;;;;;4.65;1.25;;;;;;;18.73;39.76;94424.34;5123080;28;20012;-77
2022/07/13 07:39:51;;;;;;;3.33;0.65;;;;;;;18.73;39.87;94424.34;5123335;28;20321;-78
2022/07/13 07:42:17;;;;;;;3.95;0.77;;;;;;;18.82;41.30;94414.16;5122990;28;20015;-77
2022/07/13 07:44:43;;;;;;;3.08;1.00;;;;;;;18.98;39.64;94420.31;5122987;28;20061;-78
2022/07/13 07:47:08;;;;;;;3.53;1.13;;;;;;;19.07;36.98;94416.63;5121722;28;20028;-77
2022/07/13 07:49:34;;;;;;;1.27;0.65;;;;;;;19.13;38.27;94410.63;5122985;28;20038;-77
2022/07/13 07:52:00;;;;;;;10.07;1.40;;;;;;;19.26;37.07;94415.88;5123022;28;20317;-77
2022/07/13 07:54:25;;;;;;;1.88;0.75;;;;;;;19.18;37.27;94404.13;5122891;28;20016;-78
2022/07/13 07:56:51;;;;;;;3.47;1.02;;;;;;;19.24;36.93;94408.91;5123199;28;20019;-77
2022/07/13 07:59:16;;;;;;;1.90;0.70;;;;;;;19.24;37.47;94405.44;5123052;28;20016;-77
2022/07/13 08:01:42;;;;;;;6.95;1.08;;;;;;;19.34;37.22;94417.59;5122947;28;20050;-77
2022/07/13 08:04:08;;;;;;;6.38;0.90;;;;;;;19.41;37.38;94409.63;5122864;28;20240;-77
2022/07/13 08:06:34;;;;;;;7.18;1.13;;;;;;;19.48;37.35;94403.56;5122767;28;20226;-78
2022/07/13 08:08:59;;;;;;;7.00;0.70;;;;;;;19.63;38.02;94397.31;5123038;28;20321;-78
2022/07/13 08:11:25;;;;;;;1.35;0.70;;;;;;;19.63;37.35;94402.72;5122904;28;20027;-77
2022/07/13 08:13:51;;;;;;;2.28;1.15;;;;;;;19.68;38.34;94404.34;5126343;28;20065;-77
2022/07/13 08:16:17;;;;;;;5.05;0.75;;;;;;;19.53;37.07;94406.00;5126156;28;20039;-77
2022/07/13 08:18:44;;;;;;;5.05;0.60;;;;;;;19.54;37.60;94402.13;5126281;28;20092;-77
2022/07/13 08:21:09;;;;;;;1.50;1.13;;;;;;;19.47;37.78;94407.41;5126086;28;20198;-78
2022/07/13 08:23:53;;;;;;;10.38;0.95;;;;;;;19.53;38.05;94406.00;5126082;28;20050;-79
2022/07/13 08:26:29;;;;;;;1.75;0.60;;;;;;;19.54;38.10;94402.94;5126113;28;20069;-80
2022/07/13 08:28:57;;;;;;;4.05;1.02;;;;;;;19.70;38.03;94415.59;5126292;28;20249;-79
2022/07/13 08:31:23;;;;;;;4.93;0.95;;;;;;;19.71;37.74;94411.78;5126103;28;20047;-78
2022/07/13 08:39:18;;;;;;;26.02;1.45;;;;;;;19.79;36.96;94411.56;5126161;28;20026;-77
2022/07/13 08:41:44;;;;;;;4.50;1.20;;;;;;;19.81;36.19;94401.16;5126118;28;20031;-77
2022/07/13 08:44:10;;;;;;;9.27;0.85;;;;;;;19.95;35.77;94402.56;5125849;28;20024;-78
2022/07/13 08:46:36;;;;;;;1.90;0.90;;;;;;;19.83;36.71;94407.00;5126046;28;20024;-78
2022/07/13 08:49:02;;;;;;;5.00;0.70;;;;;;;19.78;36.81;94411.91;5126070;27;20045;-78
2022/07/13 08:51:31;;;;;;;3.78;0.70;;;;;;;19.77;36.10;94405.72;5125906;28;20061;-78
2022/07/13 08:53:57;;;;;;;2.88;0.90;;;;;;;19.81;37.55;94401.16;5125890;28;20091;-78
2022/07/13 08:56:23;;;;;;;1.42;0.85;;;;;;;19.86;38.00;94404.72;5125997;28;20064;-78
2022/07/13 08:58:49;;;;;;;12.13;1.00;;;;;;;19.94;36.87;94399.06;5125920;28;20194;-78
2022/07/13 09:01:16;;;;;;;3.50;0.73;;;;;;;19.93;34.88;94410.25;5125397;28;20325;-77
2022/07/13 09:03:42;;;;;;;3.55;0.77;;;;;;;19.96;36.02;94404.13;5125538;28;20026;-77
2022/07/13 09:06:08;;;;;;;2.75;0.80;;;;;;;20.05;34.98;94399.28;5125524;28;20020;-75
2022/07/13 09:08:42;;;;;;;3.65;0.90;;;;;;;20.10;36.91;94400.88;5125460;28;20043;-76
2022/07/13 09:11:08;;;;;;;5.90;1.05;;;;;;;20.02;35.89;94402.69;5125386;28;20321;-76
2022/07/13 09:13:35;;;;;;;5.43;1.33;;;;;;;20.04;35.48;94397.69;5125503;28;20339;-77
2022/07/13 09:16:35;;;;;;;7.28;0.90;;;;;;;20.20;34.48;94392.94;5125331;28;20032;-78
2022/07/13 09:19:02;;;;;;;2.90;0.68;;;;;;;20.41;37.38;94394.44;5125303;28;20031;-77
2022/07/13 09:21:30;;;;;;;2.90;0.70;;;;;;;20.55;36.61;94394.66;5125204;28;20103;-77
2022/07/13 09:23:57;;;;;;;2.85;0.85;;;;;;;20.64;37.57;94400.66;5125156;28;20076;-78
2022/07/13 09:26:23;;;;;;;2.92;0.70;;;;;;;20.73;35.35;94399.59;5125277;28;20027;-77
2022/07/13 09:28:51;;;;;;;2.35;0.70;;;;;;;20.57;36.26;94403.19;5125080;28;20047;-76
2022/07/13 09:31:18;;;;;;;5.90;0.70;;;;;;;20.67;35.09;94396.41;5125128;28;20032;-76
2022/07/13 09:33:46;;;;;;;5.60;1.23;;;;;;;20.81;36.14;94395.84;5124961;28;20031;-76
2022/07/13 09:36:20;;;;;;;1.98;0.77;;;;;;;20.93;33.77;94389.44;5124680;28;20020;-75
2022/07/13 09:38:49;;;;;;;9.55;1.75;;;;;;;21.17;34.31;94399.06;5124970;28;20031;-75
2022/07/13 09:41:17;;;;;;;13.48;1.30;;;;;;;21.33;34.16;94394.25;5124677;27;20361;-73
2022/07/13 09:46:50;;;;;;;4.50;0.90;;;;;;;21.64;33.22;94389.59;5124555;28;20227;-75
2022/07/13 09:49:28;;;;;;;1.27;0.60;;;;;;;21.67;32.96;94388.84;5124879;28;20027;-75
2022/07/13 09:51:57;;;;;;;1.77;0.60;;;;;;;21.79;32.58;94385.88;5124754;28;20015;-76
2022/07/13 09:54:24;;;;;;;3.28;0.95;;;;;;;21.93;31.92;94387.19;5124556;28;20023;-77
2022/07/13 09:56:51;;;;;;;6.03;0.80;;;;;;;21.96;32.38;94391.84;5124315;28;20015;-77
2022/07/13 09:59:18;;;;;;;8.30;0.98;;;;;;;21.94;32.92;94388.72;5124446;28;20020;-76
2022/07/13 10:01:47;;;;;;;11.50;0.90;;;;;;;21.94;32.75;94389.53;5124314;28;20015;-76
2022/07/13 10:04:14;;;;;;;8.07;1.10;;;;;;;21.96;32.49;94381.00;5122555;28;20359;-76
2022/07/13 10:06:39;;;;;;;3.22;0.88;;;;;;;21.96;31.70;94386.44;5124217;28;20342;-76
2022/07/13 10:09:05;;;;;;;2.70;0.68;;;;;;;22.02;31.22;94379.50;5123836;28;20023;-76
2022/07/13 10:11:31;;;;;;;4.28;0.90;;;;;;;21.84;33.62;94388.25;5123909;28;20065;-76
2022/07/13 10:13:57;;;;;;;8.85;1.00;;;;;;;21.52;33.19;94377.06;5124248;28;20016;-75
2022/07/13 10:16:23;;;;;;;1.73;0.65;;;;;;;21.55;35.85;94378.25;5123821;28;20041;-76
2022/07/13 10:18:50;;;;;;;6.05;0.82;;;;;;;21.62;32.86;94375.63;5124025;28;20038;-76
2022/07/13 10:21:23;;;;;;;6.97;0.60;;;;;;;21.76;34.38;94367.63;5124076;28;20023;-76
2022/07/13 10:23:49;;;;;;;6.43;0.85;;;;;;;21.78;34.25;94362.63;5123966;28;20016;-76
2022/07/13 10:26:31;;;;;;;4.05;0.73;;;;;;;21.86;34.44;94370.81;5123729;28;20020;-76
2022/07/13 10:29:03;;;;;;;1.73;0.55;;;;;;;21.72;31.10;94366.03;5123977;27;20031;-78
2022/07/13 10:31:29;;;;;;;;;;;;;;;21.72;32.96;94358.69;5122915;28;20103;-77
2022/07/13 10:33:55;;;;;;;4.60;0.60;;;;;;;21.86;32.13;94362.69;5124092;28;19904;-77
2022/07/13 10:36:49;;;;;;;1.25;0.75;;;;;;;21.88;31.30;94354.94;5123370;28;20374;-78
2022/07/13 10:39:15;;;;;;;5.43;1.75;;;;;;;22.02;32.71;94355.88;5123790;28;20278;-78
2022/07/13 10:41:59;;;;;;;19.33;1.30;;;;;;;21.99;32.92;94350.41;5123728;28;20029;-78
2022/07/13 10:44:38;;;;;;;3.00;0.70;;;;;;;21.97;33.72;94350.00;5123694;28;20050;-78
2022/07/13 10:47:09;;;;;;;1.85;0.82;;;;;;;22.04;33.66;94355.47;5123635;28;20220;-78
2022/07/13 10:49:36;;;;;;;12.90;1.38;;;;;;;22.13;33.99;94358.69;5123534;28;20027;-77
2022/07/13 10:52:22;;;;;;;2.75;1.10;;;;;;;22.21;33.45;94359.53;5123799;28;20027;-77
2022/07/13 10:55:07;;;;;;;9.90;1.08;;;;;;;22.23;32.66;94362.66;5123406;28;20213;-77
2022/07/13 10:57:34;;;;;;;12.30;0.93;;;;;;;22.21;33.63;94357.59;5123407;28;20344;-78
2022/07/13 11:00:02;;;;;;;2.92;1.15;;;;;;;22.21;33.78;94365.72;5123127;28;20035;-77
2022/07/13 11:02:47;;;;;;;3.28;0.75;;;;;;;22.11;33.17;94368.38;5123599;28;20249;-77
2022/07/13 11:06:01;;;;;;;8.30;1.15;;;;;;;22.04;33.76;94366.34;5123318;28;20117;-76
2022/07/13 11:08:28;;;;;;;4.07;0.60;;;;;;;22.09;35.05;94354.38;5116100;28;20039;-78
2022/07/13 11:11:14;;;;;;;4.30;1.00;;;;;;;21.96;33.75;94343.00;5123459;28;20062;-78
2022/07/13 11:13:40;;;;;;;7.43;0.77;;;;;;;22.02;31.48;94349.66;5123364;28;20100;-79
2022/07/13 11:16:07;;;;;;;1.75;0.70;;;;;;;22.07;32.29;94343.91;5123137;28;20038;-77
2022/07/13 11:18:37;;;;;;;6.47;0.90;;;;;;;22.13;32.57;94342.41;5123504;28;20039;-77
2022/07/13 11:21:18;;;;;;;11.35;0.95;;;;;;;22.17;33.91;94345.91;5123197;28;20019;-76
2022/07/13 11:26:51;;;;;;;2.75;0.73;;;;;;;22.10;34.21;94339.66;5123250;28;20027;-76
2022/07/13 11:29:57;;;;;;;2.53;0.65;;;;;;;22.15;33.64;94342.03;5122179;28;20355;-76
2022/07/13 11:32:25;;;;;;;3.55;0.80;;;;;;;21.86;33.79;94339.06;5123385;28;20100;-76
2022/07/13 11:34:51;;;;;;;3.60;1.15;;;;;;;21.85;33.81;94334.78;5122974;28;20272;-76
2022/07/13 11:37:26;;;;;;;2.30;0.70;;;;;;;22.04;34.71;94333.78;5123351;28;20099;-78
2022/07/13 11:39:51;;;;;;;1.15;0.63;;;;;;;22.12;33.72;94334.63;5123063;28;20018;-76
2022/07/13 11:42:22;;;;;;;2.03;0.63;;;;;;;22.35;33.73;94331.75;5123079;28;20027;-76
2022/07/13 11:44:51;;;;;;;4.35;0.90;;;;;;;22.57;32.08;94322.59;5123012;28;20258;-77
2022/07/13 11:47:16;;;;;;;7.80;1.10;;;;;;;22.87;32.33;94321.59;5124454;28;20034;-77